Terminal Aerodrome Forecast
Issued by NWS

Home | Current Version | Previous Version | Text Only | Print | Product List | Glossary On
Versions: 1 2 3 4 5 6 7 8 9 10 11 12 13
000
FTUS46 KSGX 252300
TAFCRQ
TAF
KCRQ 252334Z 2600/2624 VRB04KT P6SM BKN150
     FM261600 12009KT P6SM VCSH BKN060 OVC100
     FM262000 VRB06KT P6SM -SHRA BKN040 OVC080=

USA.gov is the U.S. government's official web portal to all federal, state and local government web resources and services.